23 de mayo de 2022

Hora Código Tiempo Temp. Visibilidad Nubes Viento METAR/SPECI
09:00
V
13 °C 64 km 30.000 ft 320°   320° 4 kt METAR CYYC 231500Z 32004KT 40SM OVC300 13/M05 A2999 RMK CS8 HALO SLP169 DENSITY ALT 4100FT
08:00
V
10 °C 64 km 30.000 ft Var   Var 5 kt METAR CYYC 231400Z VRB05KT 40SM OVC300 10/M04 A3001 RMK CS8 HALO SLP176 DENSITY ALT 3800FT
07:00
V
5 °C 64 km - 180°   180° 5 kt METAR CYYC 231300Z 18005KT 40SM FEW160 SCT260 05/M03 A3001 RMK AC1CS3 AC TR HALO SLP182
06:00
V
4 °C 64 km - 200°   200° 4 kt METAR CYYC 231200Z 20004KT 40SM FEW080 FEW100 FEW250 04/M05 A3001 RMK AC1AC1CI1 AC TR AC TR SLP183
05:00
V
4 °C 24 km - 170°   170° 5 kt METAR CYYC 231100Z 17005KT 15SM FEW075 FEW095 FEW250 04/M05 A3001 RMK AC1AC1CI1 AC TR AC TR CI TR SLP185
04:00
V
2 °C 24 km - 230°   230° 5 kt METAR CYYC 231000Z 23005KT 15SM FEW090 FEW260 02/M06 A3003 RMK AC1CI1 AC TR CI TR CONTRAILS SLP193
03:55
V
2 °C 24 km - 220°   220° 5 kt METAR CYYC 230955Z 22005KT 15SM FEW090 FEW260 02/M06 A3003 RMK AC1CI1 AC TR / T DECREASE / SLP192
03:00
V
6 °C 24 km - 220°   220° 3 kt METAR CYYC 230900Z 22003KT 130V230 15SM SCT260 06/M05 A3003 RMK CI3 SLP190
02:00
V
8 °C 24 km - 210°   210° 4 kt METAR CYYC 230800Z 21004KT 15SM FEW260 08/M05 A3004 RMK CI2 SLP188
01:00
V
10 °C 24 km - 240°   240° 5 kt METAR CYYC 230700Z 24005KT 15SM FEW095 FEW100 FEW120 10/M05 A3004 RMK AC1AC1AC1 AC TR AC TR AC TR SLP188 DENSITY ALT 3800FT
00:00
V
10 °C 24 km 15.000 ft 220°   220° 5 kt METAR CYYC 230600Z 22005KT 15SM SCT100 BKN150 BKN260 10/M05 A3004 RMK AC4AC1CI1 SLP189 DENSITY ALT 3800FT

22 de mayo de 2022

Hora Código Tiempo Temp. Visibilidad Nubes Viento METAR/SPECI
23:00
V
10 °C 32 km - 200°   200° 6 kt METAR CYYC 230500Z 20006KT 20SM FEW100 FEW120 10/M05 A3004 RMK AC1AC1 SLP188 DENSITY ALT 3800FT
22:00
V
12 °C 64 km - 190°   190° 4 kt METAR CYYC 230400Z 19004KT 40SM FEW110 FEW130 12/M07 A3004 RMK AC1AC1 AC TR SLP187 DENSITY ALT 4000FT
21:00
V
14 °C 64 km - Var   000° 0 kt METAR CYYC 230300Z 00000KT 40SM FEW120 SCT130 14/M08 A3003 RMK AC2AC1 LGT VIRGA SE-NW SLP188 DENSITY ALT 4200FT
20:00
V
15 °C 64 km - Var   Var 3 kt METAR CYYC 230200Z VRB03KT 40SM FEW095 SCT110 15/M08 A3003 RMK AC2AC2 SLP188 DENSITY ALT 4300FT
19:00
V
15 °C 64 km - 280°   280° 3 kt METAR CYYC 230100Z 28003KT 240V340 40SM FEW100 SCT110 15/M07 A3002 RMK AC2AC2 VIRGA S-W CU ASOCTD SLP192 DENSITY ALT 4400FT
18:00
V
17 °C 64 km - 320°   320° 6 kt METAR CYYC 230000Z 32006KT 270V020 40SM FEW090 FEW100 SCT110 17/M06 A3004 RMK CU2AC1AC1 AC TR VIRGA S-N / CU MDT SLP197 DENSITY ALT 4500FT
17:00
V
15 °C 64 km - 320°   320° 3 kt METAR CYYC 222300Z 32003KT 240V010 40SM SCT100 SCT230 15/M08 A3004 RMK AC3CI1 CI TR SLP200 DENSITY ALT 4400FT
16:00
V
16 °C 64 km - 050°   050° 5 kt METAR CYYC 222200Z 05005KT 310V070 40SM SCT096 SCT230 16/M07 A3005 RMK AC3CI1 CI TR SLP201 DENSITY ALT 4400FT
15:00
V
15 °C 64 km - 360°   360° 10 20 kt METAR CYYC 222100Z 36010G20KT 320V050 40SM SCT085 SCT300 15/M07 A3007 RMK AC3CI1 CI TR SLP206 DENSITY ALT 4300FT
14:00
V
15 °C 64 km - 320°   320° 10 19 kt METAR CYYC 222000Z 32010G19KT 240V030 40SM SCT088 SCT300 15/M07 A3008 RMK AC4CI1 CI TR SLP211 DENSITY ALT 4200FT
13:00
V
14 °C 64 km - 030°   030° 11 20 kt METAR CYYC 221900Z 03011G20KT 40SM SCT080 SCT300 14/M08 A3009 RMK AC3CI1 CI TR SLP215 DENSITY ALT 4200FT
12:00
V
13 °C 64 km - 330°   330° 8 16 kt METAR CYYC 221800Z 33008G16KT 310V050 40SM SCT080 SCT300 13/M07 A3010 RMK AC3CI1 CI TR SLP219 DENSITY ALT 4100FT
11:00
V
12 °C 64 km - 350°   350° 12 20 kt METAR CYYC 221700Z 35012G20KT 330V030 40SM FEW080 12/M06 A3011 RMK AC2 SLP222 DENSITY ALT 4000FT
10:00
V
12 °C 64 km - 010°   010° 9 kt METAR CYYC 221600Z 01009KT 330V050 40SM FEW070 12/M05 A3012 RMK AC1 AC TR SLP223 DENSITY ALT 3900FT
09:00
V
8 °C 64 km - Var   Var 2 kt METAR CYYC 221500Z VRB02KT 40SM FEW300 08/M04 A3013 RMK CI1 CI TR SLP230
08:00
V
5 °C 64 km - 240°   240° 7 kt METAR CYYC 221400Z 24007KT 40SM SKC 05/M04 A3013 RMK SLP234
07:00
V
2 °C 64 km - 220°   220° 2 kt METAR CYYC 221300Z 22002KT 40SM FEW300 02/M04 A3014 RMK CI1 CI TR SLP240
06:00
V
0 °C 64 km - 210°   210° 3 kt METAR CYYC 221200Z 21003KT 40SM FEW110 FEW300 M00/M05 A3014 RMK AC1CI1 AC TR CI TR FROIN SLP245
05:00
V
0 °C 32 km - 310°   310° 3 kt METAR CYYC 221100Z 31003KT 20SM SKC 00/M05 A3015 RMK SLP245
04:00
V
2 °C 24 km - 220°   220° 3 kt METAR CYYC 221000Z 22003KT 15SM SKC 02/M04 A3016 RMK SLP248
03:00
V
2 °C 24 km - 220°   220° 5 kt METAR CYYC 220900Z 22005KT 15SM SKC 02/M05 A3017 RMK T SLP252
02:55
V
3 °C 24 km - 220°   220° 5 kt METAR CYYC 220855Z 22005KT 15SM SKC 03/M05 A3017 RMK T SLP252
02:00
V
3 °C 24 km - 200°   200° 4 kt METAR CYYC 220800Z 20004KT 15SM SKC 03/M04 A3018 RMK SLP255
01:00
V
3 °C 24 km - 200°   200° 5 kt METAR CYYC 220700Z 20005KT 15SM SKC 03/M04 A3019 RMK SLP259
00:00
V
3 °C 24 km - 190°   190° 9 kt METAR CYYC 220600Z 19009KT 15SM FEW082 03/M05 A3020 RMK AC1 AC TR SLP263

21 de mayo de 2022

Hora Código Tiempo Temp. Visibilidad Nubes Viento METAR/SPECI
23:00
V
4 °C 24 km - 190°   190° 8 kt METAR CYYC 220500Z 19008KT 15SM FEW080 04/M06 A3021 RMK AC1 AC TR SLP265
22:00
V
6 °C 32 km - 170°   170° 9 kt METAR CYYC 220400Z 17009KT 20SM FEW080 06/M06 A3022 RMK AC1 AC TR SLP264
21:00
V
8 °C 48 km - 140°   140° 9 kt METAR CYYC 220300Z 14009KT 30SM FEW062 FEW081 FEW300 08/M07 A3021 RMK SC1AC2CI1 SC TR CI TR SLP262
20:00
V
9 °C 32 km - 130°   130° 8 kt METAR CYYC 220200Z 13008KT 20SM SCT080 09/M07 A3021 RMK AC4 SLP264
19:00
V
9 °C 64 km 8.500 ft Var   Var 3 kt METAR CYYC 220100Z VRB03KT 40SM FEW050 SCT075 BKN085 BKN120 09/M08 A3022 RMK CU1AC4AC1AC1 CU TR TCU ASOCTD SLP269
18:00
V
9 °C 64 km 8.800 ft 140°   140° 4 kt METAR CYYC 220000Z 14004KT 120V200 40SM FEW078 BKN088 BKN120 BKN260 09/M08 A3023 RMK CU2AC3AC1CI1 CI TR LGT VIRGA ALQDS TCU ASOCTD SLP273
17:00
V
11 °C 48 km - 170°   170° 5 kt METAR CYYC 212300Z 17005KT 30SM SCT070 SCT090 SCT260 11/M07 A3024 RMK AC4AC1CI1 AC TR CI TR VIRGA W TCU ASOCTD SLP273
16:00
V
9 °C 40 km 8.000 ft 180°   180° 6 kt METAR CYYC 212200Z 18006KT 160V330 25SM SCT070TCU BKN080 BKN090 BKN260 09/M08 A3025 RMK TCU4AC1AC1CI1 CI TR VIRGA W SLP280
15:00
V
8 °C 40 km 8.500 ft 110°   110° 4 kt METAR CYYC 212100Z 11004KT 050V130 25SM SCT065TCU BKN085 08/M09 A3026 RMK TCU4AC1 VIRGA S-W / CU ASOCTD SLP282
14:00
V
9 °C 40 km 9.000 ft Var   Var 5 kt METAR CYYC 212000Z VRB05KT 25SM SCT070TCU BKN090 09/M09 A3026 RMK TCU3AC3 VIRGA SE + SW-NW SLP282
13:00
V
8 °C 40 km 8.000 ft 040°   040° 3 kt METAR CYYC 211900Z 04003KT 330V060 25SM BKN080 08/M09 A3027 RMK CU5 VIRGA E-W TCU ASOCTD SLP286
12:00
V
7 °C 48 km 26.000 ft 360°   360° 8 kt METAR CYYC 211800Z 36008KT 270V020 30SM FEW065 SCT120 BKN260 07/M08 A3027 RMK CU4AC1CC1 AC TR DIST SH E-W SLP288
11:00
V
8 °C 40 km 24.000 ft 020°   020° 9 kt METAR CYYC 211700Z 02009KT 330V050 25SM SCT050 SCT066 SCT120 BKN240 08/M07 A3028 RMK CU3AC1AS1CC2 AC TR AS TR DIST VIRGA S-W SLP288
10:00
V
7 °C 48 km - 030°   030° 3 kt METAR CYYC 211600Z 03003KT 330V050 30SM FEW030 SCT250 07/M07 A3028 RMK CU1CI2 DIST SH SW MTS SLP290
09:00
V
5 °C 56 km 28.000 ft 350°   350° 6 kt METAR CYYC 211500Z 35006KT 35SM FEW020TCU FEW090 SCT260 BKN280 05/M03 A3029 RMK TCU1AS1CI2CS3 TCU TR SW-W SLP295
Datos más antiguos

Descarga nuestra aplicación

Acceso fácil a todo el tiempo de la aviación en tu teléfono móvil y tableta.
Con muchas funciones no disponibles en el sitio web, como la compatibilidad sin conexión y una lista personal de aeropuertos.

Nosotros y terceros seguimos tu comportamiento en Internet en nuestro sitio web con cookies. Si continúas, asumimos que estás de acuerdo con nuestra política de cookies. Más información